sensor_id;sensor_type;location;lat;lon;timestamp;temperature;humidity
1123;DHT22;548;48.778;9.252;2022-10-16T01:47:32;16.10;99.90
1123;DHT22;548;48.778;9.252;2022-10-16T01:50:00;16.00;99.90
1123;DHT22;548;48.778;9.252;2022-10-16T01:52:31;16.00;99.90
1123;DHT22;548;48.778;9.252;2022-10-16T01:55:02;16.00;99.90
1123;DHT22;548;48.778;9.252;2022-10-16T01:57:33;15.90;99.90
1123;DHT22;548;48.778;9.252;2022-10-16T02:00:04;16.00;99.90
1123;DHT22;548;48.778;9.252;2022-10-16T02:02:34;16.00;99.90
1123;DHT22;548;48.778;9.252;2022-10-16T02:05:05;16.00;99.90
1123;DHT22;548;48.778;9.252;2022-10-16T02:07:37;16.00;99.90
1123;DHT22;548;48.778;9.252;2022-10-16T02:10:04;16.00;99.90
1123;DHT22;548;48.778;9.252;2022-10-16T02:12:33;16.10;99.90
1123;DHT22;548;48.778;9.252;2022-10-16T02:15:01;16.00;99.90
1123;DHT22;548;48.778;9.252;2022-10-16T02:17:28;16.10;99.90
1123;DHT22;548;48.778;9.252;2022-10-16T02:19:58;16.10;99.90
1123;DHT22;548;48.778;9.252;2022-10-16T02:22:28;16.10;99.90
1123;DHT22;548;48.778;9.252;2022-10-16T02:24:59;16.10;99.90
1123;DHT22;548;48.778;9.252;2022-10-16T02:27:33;16.10;99.90
1123;DHT22;548;48.778;9.252;2022-10-16T02:30:05;16.00;99.90
1123;DHT22;548;48.778;9.252;2022-10-16T02:32:35;16.10;99.90
1123;DHT22;548;48.778;9.252;2022-10-16T02:35:04;16.10;99.90
1123;DHT22;548;48.778;9.252;2022-10-16T02:37:32;16.10;99.90
1123;DHT22;548;48.778;9.252;2022-10-16T02:39:59;16.10;99.90
1123;DHT22;548;48.778;9.252;2022-10-16T02:42:32;16.00;99.90
1123;DHT22;548;48.778;9.252;2022-10-16T02:44:59;16.00;99.90
1123;DHT22;548;48.778;9.252;2022-10-16T02:47:26;16.10;99.90
1123;DHT22;548;48.778;9.252;2022-10-16T02:49:53;16.10;99.90
1123;DHT22;548;48.778;9.252;2022-10-16T02:52:21;16.00;99.90
1123;DHT22;548;48.778;9.252;2022-10-16T02:54:48;16.00;99.90
1123;DHT22;548;48.778;9.252;2022-10-16T02:57:15;16.00;99.90
1123;DHT22;548;48.778;9.252;2022-10-16T02:59:42;16.00;99.90
1123;DHT22;548;48.778;9.252;2022-10-16T03:02:08;16.00;99.90
1123;DHT22;548;48.778;9.252;2022-10-16T03:04:35;16.00;99.90
1123;DHT22;548;48.778;9.252;2022-10-16T03:07:02;16.00;99.90
1123;DHT22;548;48.778;9.252;2022-10-16T03:09:30;16.00;99.90
1123;DHT22;548;48.778;9.252;2022-10-16T03:11:57;16.00;99.90
1123;DHT22;548;48.778;9.252;2022-10-16T03:14:24;16.00;99.90
1123;DHT22;548;48.778;9.252;2022-10-16T03:16:51;16.00;99.90
1123;DHT22;548;48.778;9.252;2022-10-16T03:19:17;15.90;99.90
1123;DHT22;548;48.778;9.252;2022-10-16T03:21:45;15.90;99.90
1123;DHT22;548;48.778;9.252;2022-10-16T03:24:11;15.90;99.90
1123;DHT22;548;48.778;9.252;2022-10-16T03:26:39;16.00;99.90
1123;DHT22;548;48.778;9.252;2022-10-16T03:29:06;16.00;99.90
1123;DHT22;548;48.778;9.252;2022-10-16T03:31:33;16.00;99.90
1123;DHT22;548;48.778;9.252;2022-10-16T03:34:00;15.90;99.90
1123;DHT22;548;48.778;9.252;2022-10-16T03:36:26;15.90;99.90
1123;DHT22;548;48.778;9.252;2022-10-16T03:38:53;15.90;99.90
1123;DHT22;548;48.778;9.252;2022-10-16T03:41:20;15.90;99.90
1123;DHT22;548;48.778;9.252;2022-10-16T03:43:48;15.90;99.90
1123;DHT22;548;48.778;9.252;2022-10-16T03:46:14;15.90;99.90
1123;DHT22;548;48.778;9.252;2022-10-16T03:48:41;15.90;99.90
1123;DHT22;548;48.778;9.252;2022-10-16T03:51:08;15.90;99.90
1123;DHT22;548;48.778;9.252;2022-10-16T03:53:34;15.90;99.90
1123;DHT22;548;48.778;9.252;2022-10-16T03:56:01;15.90;99.90
1123;DHT22;548;48.778;9.252;2022-10-16T03:58:28;15.90;99.90
1123;DHT22;548;48.778;9.252;2022-10-16T04:00:56;15.90;99.90
1123;DHT22;548;48.778;9.252;2022-10-16T04:03:23;15.80;99.90
1123;DHT22;548;48.778;9.252;2022-10-16T04:05:49;15.70;99.90
1123;DHT22;548;48.778;9.252;2022-10-16T04:08:16;15.70;99.90
1123;DHT22;548;48.778;9.252;2022-10-16T04:10:43;15.70;99.90
1123;DHT22;548;48.778;9.252;2022-10-16T04:13:10;15.70;99.90
1123;DHT22;548;48.778;9.252;2022-10-16T04:15:37;15.70;99.90
1123;DHT22;548;48.778;9.252;2022-10-16T04:18:05;15.70;99.90
1123;DHT22;548;48.778;9.252;2022-10-16T04:20:32;15.60;99.90
1123;DHT22;548;48.778;9.252;2022-10-16T04:22:59;15.60;99.90
1123;DHT22;548;48.778;9.252;2022-10-16T04:25:26;15.60;99.90
1123;DHT22;548;48.778;9.252;2022-10-16T04:27:52;15.60;99.90
1123;DHT22;548;48.778;9.252;2022-10-16T04:30:20;15.60;99.90
1123;DHT22;548;48.778;9.252;2022-10-16T04:32:48;15.60;99.90
1123;DHT22;548;48.778;9.252;2022-10-16T04:35:16;15.60;99.90
1123;DHT22;548;48.778;9.252;2022-10-16T04:37:43;15.60;99.90
1123;DHT22;548;48.778;9.252;2022-10-16T04:40:10;15.60;99.90
1123;DHT22;548;48.778;9.252;2022-10-16T04:42:36;15.60;99.90
1123;DHT22;548;48.778;9.252;2022-10-16T04:45:05;15.60;99.90
1123;DHT22;548;48.778;9.252;2022-10-16T04:47:32;15.60;99.90
1123;DHT22;548;48.778;9.252;2022-10-16T04:49:58;15.60;99.90
1123;DHT22;548;48.778;9.252;2022-10-16T04:52:29;15.60;99.90
1123;DHT22;548;48.778;9.252;2022-10-16T04:54:57;15.60;99.90
1123;DHT22;548;48.778;9.252;2022-10-16T04:57:26;15.70;99.90
1123;DHT22;548;48.778;9.252;2022-10-16T04:59:53;15.70;99.90
1123;DHT22;548;48.778;9.252;2022-10-16T05:02:20;15.80;99.90
1123;DHT22;548;48.778;9.252;2022-10-16T05:04:46;15.80;99.90
1123;DHT22;548;48.778;9.252;2022-10-16T05:07:13;15.80;99.90
1123;DHT22;548;48.778;9.252;2022-10-16T05:09:41;15.80;99.90
1123;DHT22;548;48.778;9.252;2022-10-16T05:12:08;15.80;99.90
1123;DHT22;548;48.778;9.252;2022-10-16T05:14:35;15.80;99.90
1123;DHT22;548;48.778;9.252;2022-10-16T05:17:01;15.90;99.90
1123;DHT22;548;48.778;9.252;2022-10-16T05:19:28;15.90;99.90
1123;DHT22;548;48.778;9.252;2022-10-16T05:21:55;15.90;99.90
1123;DHT22;548;48.778;9.252;2022-10-16T05:24:22;15.80;99.90
1123;DHT22;548;48.778;9.252;2022-10-16T05:26:51;15.70;99.90
1123;DHT22;548;48.778;9.252;2022-10-16T05:29:18;15.70;99.90
1123;DHT22;548;48.778;9.252;2022-10-16T05:31:44;15.70;99.90
1123;DHT22;548;48.778;9.252;2022-10-16T05:34:11;15.60;99.90
1123;DHT22;548;48.778;9.252;2022-10-16T05:36:38;15.60;99.90
1123;DHT22;548;48.778;9.252;2022-10-16T05:39:04;15.60;99.90
1123;DHT22;548;48.778;9.252;2022-10-16T05:41:31;15.50;99.90
1123;DHT22;548;48.778;9.252;2022-10-16T05:43:59;15.50;99.90
1123;DHT22;548;48.778;9.252;2022-10-16T05:46:26;15.40;99.90
1123;DHT22;548;48.778;9.252;2022-10-16T05:48:53;15.40;99.90
1123;DHT22;548;48.778;9.252;2022-10-16T05:51:19;15.30;99.90
1123;DHT22;548;48.778;9.252;2022-10-16T05:53:46;15.30;99.90
1123;DHT22;548;48.778;9.252;2022-10-16T05:56:13;15.40;99.90
1123;DHT22;548;48.778;9.252;2022-10-16T05:58:40;15.40;99.90
1123;DHT22;548;48.778;9.252;2022-10-16T06:01:11;15.40;99.90
1123;DHT22;548;48.778;9.252;2022-10-16T06:03:38;15.40;99.90
1123;DHT22;548;48.778;9.252;2022-10-16T06:06:09;15.50;99.90
1123;DHT22;548;48.778;9.252;2022-10-16T06:08:36;15.50;99.90
1123;DHT22;548;48.778;9.252;2022-10-16T06:11:04;15.60;99.90
1123;DHT22;548;48.778;9.252;2022-10-16T06:13:31;15.70;99.90
1123;DHT22;548;48.778;9.252;2022-10-16T06:15:59;15.60;99.90
1123;DHT22;548;48.778;9.252;2022-10-16T06:18:28;15.70;99.90
1123;DHT22;548;48.778;9.252;2022-10-16T06:20:55;15.80;99.90
1123;DHT22;548;48.778;9.252;2022-10-16T06:23:23;15.80;99.90
1123;DHT22;548;48.778;9.252;2022-10-16T06:25:50;15.90;99.90
1123;DHT22;548;48.778;9.252;2022-10-16T06:28:17;16.00;99.90
1123;DHT22;548;48.778;9.252;2022-10-16T06:30:43;16.10;99.90
1123;DHT22;548;48.778;9.252;2022-10-16T06:33:11;16.00;99.90
1123;DHT22;548;48.778;9.252;2022-10-16T06:35:39;16.00;99.90
1123;DHT22;548;48.778;9.252;2022-10-16T06:38:06;16.00;99.90
1123;DHT22;548;48.778;9.252;2022-10-16T06:40:33;16.10;99.90
1123;DHT22;548;48.778;9.252;2022-10-16T06:42:59;16.10;99.90
1123;DHT22;548;48.778;9.252;2022-10-16T06:45:26;16.10;99.90
1123;DHT22;548;48.778;9.252;2022-10-16T06:47:53;16.20;99.90
1123;DHT22;548;48.778;9.252;2022-10-16T06:50:19;16.30;99.90
1123;DHT22;548;48.778;9.252;2022-10-16T06:52:47;16.50;99.90
1123;DHT22;548;48.778;9.252;2022-10-16T06:55:14;16.70;99.90
1123;DHT22;548;48.778;9.252;2022-10-16T06:57:42;16.90;99.90
1123;DHT22;548;48.778;9.252;2022-10-16T07:00:09;17.10;99.90
1123;DHT22;548;48.778;9.252;2022-10-16T07:02:36;17.10;99.90
1123;DHT22;548;48.778;9.252;2022-10-16T07:05:03;17.00;99.90
1123;DHT22;548;48.778;9.252;2022-10-16T07:07:30;17.00;99.90
1123;DHT22;548;48.778;9.252;2022-10-16T07:09:58;17.00;99.90
1123;DHT22;548;48.778;9.252;2022-10-16T07:12:25;16.90;99.90
1123;DHT22;548;48.778;9.252;2022-10-16T07:14:52;17.00;99.90
1123;DHT22;548;48.778;9.252;2022-10-16T07:17:20;17.10;99.90
1123;DHT22;548;48.778;9.252;2022-10-16T07:19:46;17.20;99.90
1123;DHT22;548;48.778;9.252;2022-10-16T07:22:13;17.30;99.90
1123;DHT22;548;48.778;9.252;2022-10-16T07:24:40;17.60;99.90
1123;DHT22;548;48.778;9.252;2022-10-16T07:27:08;17.80;99.90
1123;DHT22;548;48.778;9.252;2022-10-16T07:29:35;17.80;99.90
1123;DHT22;548;48.778;9.252;2022-10-16T07:32:02;17.80;99.90
1123;DHT22;548;48.778;9.252;2022-10-16T07:34:29;17.70;99.90
1123;DHT22;548;48.778;9.252;2022-10-16T07:36:55;17.50;99.90
1123;DHT22;548;48.778;9.252;2022-10-16T07:39:22;17.50;99.90
1123;DHT22;548;48.778;9.252;2022-10-16T07:41:49;17.50;99.90
1123;DHT22;548;48.778;9.252;2022-10-16T07:44:17;17.60;99.90
1123;DHT22;548;48.778;9.252;2022-10-16T07:46:43;17.50;99.90
1123;DHT22;548;48.778;9.252;2022-10-16T07:49:10;17.50;99.90
1123;DHT22;548;48.778;9.252;2022-10-16T07:51:37;17.50;99.90
1123;DHT22;548;48.778;9.252;2022-10-16T07:54:04;17.40;99.90
1123;DHT22;548;48.778;9.252;2022-10-16T07:56:31;17.40;99.90
1123;DHT22;548;48.778;9.252;2022-10-16T07:58:58;17.50;99.90
1123;DHT22;548;48.778;9.252;2022-10-16T08:01:27;17.60;99.90
1123;DHT22;548;48.778;9.252;2022-10-16T08:03:53;17.90;99.90
1123;DHT22;548;48.778;9.252;2022-10-16T08:06:21;18.00;99.90
1123;DHT22;548;48.778;9.252;2022-10-16T08:08:48;17.80;99.90
1123;DHT22;548;48.778;9.252;2022-10-16T08:11:14;17.70;99.90
1123;DHT22;548;48.778;9.252;2022-10-16T08:13:41;17.60;99.90
1123;DHT22;548;48.778;9.252;2022-10-16T08:16:08;17.60;99.90
1123;DHT22;548;48.778;9.252;2022-10-16T08:18:37;17.60;99.90
1123;DHT22;548;48.778;9.252;2022-10-16T08:21:05;17.80;99.90
1123;DHT22;548;48.778;9.252;2022-10-16T08:23:33;18.00;99.90
1123;DHT22;548;48.778;9.252;2022-10-16T08:26:02;18.10;99.90
1123;DHT22;548;48.778;9.252;2022-10-16T08:28:30;18.10;99.90
1123;DHT22;548;48.778;9.252;2022-10-16T08:30:56;18.50;99.90
1123;DHT22;548;48.778;9.252;2022-10-16T08:33:30;19.20;99.90
1123;DHT22;548;48.778;9.252;2022-10-16T08:35:58;19.40;99.90
1123;DHT22;548;48.778;9.252;2022-10-16T08:38:25;19.50;99.90
1123;DHT22;548;48.778;9.252;2022-10-16T08:40:52;19.60;99.90
1123;DHT22;548;48.778;9.252;2022-10-16T08:43:34;20.10;99.90
1123;DHT22;548;48.778;9.252;2022-10-16T08:48:55;20.90;99.90
1123;DHT22;548;48.778;9.252;2022-10-16T08:51:26;20.80;99.90
1123;DHT22;548;48.778;9.252;2022-10-16T08:53:56;20.50;99.90
1123;DHT22;548;48.778;9.252;2022-10-16T08:56:25;20.40;99.90
1123;DHT22;548;48.778;9.252;2022-10-16T08:58:52;20.40;99.90
1123;DHT22;548;48.778;9.252;2022-10-16T09:01:21;20.40;99.90
1123;DHT22;548;48.778;9.252;2022-10-16T09:04:04;20.20;99.90
1123;DHT22;548;48.778;9.252;2022-10-16T09:06:46;20.10;99.90
1123;DHT22;548;48.778;9.252;2022-10-16T09:09:24;20.20;99.90
1123;DHT22;548;48.778;9.252;2022-10-16T09:11:58;20.20;99.90
1123;DHT22;548;48.778;9.252;2022-10-16T09:14:40;20.30;99.90
1123;DHT22;548;48.778;9.252;2022-10-16T09:17:21;20.40;99.90
1123;DHT22;548;48.778;9.252;2022-10-16T09:19:53;20.40;99.90
1123;DHT22;548;48.778;9.252;2022-10-16T09:22:26;20.50;99.90
1123;DHT22;548;48.778;9.252;2022-10-16T09:24:54;20.80;99.90
1123;DHT22;548;48.778;9.252;2022-10-16T09:27:21;20.90;99.90
1123;DHT22;548;48.778;9.252;2022-10-16T09:29:48;21.10;99.90
1123;DHT22;548;48.778;9.252;2022-10-16T09:32:18;21.40;99.90
1123;DHT22;548;48.778;9.252;2022-10-16T09:34:48;21.20;99.90
1123;DHT22;548;48.778;9.252;2022-10-16T09:37:18;21.20;99.90
1123;DHT22;548;48.778;9.252;2022-10-16T09:39:48;21.10;99.90
1123;DHT22;548;48.778;9.252;2022-10-16T09:42:17;21.30;99.90
1123;DHT22;548;48.778;9.252;2022-10-16T09:44:47;22.40;99.90
1123;DHT22;548;48.778;9.252;2022-10-16T09:47:16;23.80;99.90
1123;DHT22;548;48.778;9.252;2022-10-16T09:49:56;23.70;99.90
1123;DHT22;548;48.778;9.252;2022-10-16T09:52:24;23.10;99.90
1123;DHT22;548;48.778;9.252;2022-10-16T09:54:54;22.80;99.90
1123;DHT22;548;48.778;9.252;2022-10-16T09:57:22;23.20;99.90
1123;DHT22;548;48.778;9.252;2022-10-16T09:59:50;23.80;99.90
1123;DHT22;548;48.778;9.252;2022-10-16T10:02:19;24.10;99.90
1123;DHT22;548;48.778;9.252;2022-10-16T10:04:51;23.60;99.90
1123;DHT22;548;48.778;9.252;2022-10-16T10:07:26;23.20;99.90
1123;DHT22;548;48.778;9.252;2022-10-16T10:10:05;23.20;99.90
1123;DHT22;548;48.778;9.252;2022-10-16T10:12:33;23.50;99.90
1123;DHT22;548;48.778;9.252;2022-10-16T10:15:05;23.90;99.90
1123;DHT22;548;48.778;9.252;2022-10-16T10:17:33;24.10;99.90
1123;DHT22;548;48.778;9.252;2022-10-16T10:20:01;24.20;99.90
1123;DHT22;548;48.778;9.252;2022-10-16T10:22:42;24.40;99.90
1123;DHT22;548;48.778;9.252;2022-10-16T10:25:34;24.50;99.90
1123;DHT22;548;48.778;9.252;2022-10-16T10:28:21;24.50;99.90
1123;DHT22;548;48.778;9.252;2022-10-16T10:30:56;24.80;99.90
1123;DHT22;548;48.778;9.252;2022-10-16T10:33:30;24.80;99.90
1123;DHT22;548;48.778;9.252;2022-10-16T10:36:07;24.80;99.90
1123;DHT22;548;48.778;9.252;2022-10-16T10:38:41;24.90;99.90
1123;DHT22;548;48.778;9.252;2022-10-16T10:44:16;25.50;99.90
1123;DHT22;548;48.778;9.252;2022-10-16T10:46:48;25.80;99.90
1123;DHT22;548;48.778;9.252;2022-10-16T10:49:34;25.70;99.90
1123;DHT22;548;48.778;9.252;2022-10-16T10:52:20;26.00;99.90
1123;DHT22;548;48.778;9.252;2022-10-16T10:54:55;26.10;99.70
1123;DHT22;548;48.778;9.252;2022-10-16T10:57:32;26.90;98.70
1123;DHT22;548;48.778;9.252;2022-10-16T11:00:17;27.70;96.60
1123;DHT22;548;48.778;9.252;2022-10-16T11:02:52;28.60;94.50
1123;DHT22;548;48.778;9.252;2022-10-16T11:05:31;29.40;92.30
1123;DHT22;548;48.778;9.252;2022-10-16T11:08:02;30.10;90.60
1123;DHT22;548;48.778;9.252;2022-10-16T11:10:34;30.60;89.40
1123;DHT22;548;48.778;9.252;2022-10-16T11:13:14;31.80;84.60
1123;DHT22;548;48.778;9.252;2022-10-16T11:15:43;31.00;80.40
1123;DHT22;548;48.778;9.252;2022-10-16T11:18:15;30.20;83.30
1123;DHT22;548;48.778;9.252;2022-10-16T11:20:47;30.30;84.50
1123;DHT22;548;48.778;9.252;2022-10-16T11:23:20;29.70;84.10
1123;DHT22;548;48.778;9.252;2022-10-16T11:25:51;29.10;85.80
1123;DHT22;548;48.778;9.252;2022-10-16T11:28:23;28.70;86.50
1123;DHT22;548;48.778;9.252;2022-10-16T11:30:53;27.70;89.90
1123;DHT22;548;48.778;9.252;2022-10-16T11:33:30;27.20;90.50
1123;DHT22;548;48.778;9.252;2022-10-16T11:36:05;28.00;90.50
1123;DHT22;548;48.778;9.252;2022-10-16T11:38:39;29.30;85.20
1123;DHT22;548;48.778;9.252;2022-10-16T11:41:17;30.50;81.60
1123;DHT22;548;48.778;9.252;2022-10-16T11:43:51;30.90;79.60
1123;DHT22;548;48.778;9.252;2022-10-16T11:46:21;30.60;80.00
1123;DHT22;548;48.778;9.252;2022-10-16T11:48:54;31.10;78.50
1123;DHT22;548;48.778;9.252;2022-10-16T11:51:29;30.30;80.00
1123;DHT22;548;48.778;9.252;2022-10-16T11:54:01;30.30;80.30
1123;DHT22;548;48.778;9.252;2022-10-16T11:56:32;30.10;80.20
1123;DHT22;548;48.778;9.252;2022-10-16T11:59:04;30.30;79.30
1123;DHT22;548;48.778;9.252;2022-10-16T12:01:33;30.60;78.60
1123;DHT22;548;48.778;9.252;2022-10-16T12:04:17;30.10;78.40
1123;DHT22;548;48.778;9.252;2022-10-16T12:06:48;29.80;79.80
1123;DHT22;548;48.778;9.252;2022-10-16T12:09:22;29.90;79.30
1123;DHT22;548;48.778;9.252;2022-10-16T12:11:51;30.70;78.60
1123;DHT22;548;48.778;9.252;2022-10-16T12:14:32;31.50;75.20
1123;DHT22;548;48.778;9.252;2022-10-16T12:17:02;31.20;74.30
1123;DHT22;548;48.778;9.252;2022-10-16T12:19:32;31.50;74.00
1123;DHT22;548;48.778;9.252;2022-10-16T12:22:00;31.40;73.70
1123;DHT22;548;48.778;9.252;2022-10-16T12:24:33;31.60;72.40
1123;DHT22;548;48.778;9.252;2022-10-16T12:27:00;31.60;71.10
1123;DHT22;548;48.778;9.252;2022-10-16T12:29:36;32.20;71.10
1123;DHT22;548;48.778;9.252;2022-10-16T12:32:05;32.40;69.00
1123;DHT22;548;48.778;9.252;2022-10-16T12:34:38;32.60;68.30
1123;DHT22;548;48.778;9.252;2022-10-16T12:37:13;32.80;67.80
1123;DHT22;548;48.778;9.252;2022-10-16T12:39:41;33.10;67.10
1123;DHT22;548;48.778;9.252;2022-10-16T12:42:21;33.30;65.90
1123;DHT22;548;48.778;9.252;2022-10-16T12:44:50;33.40;64.20
1123;DHT22;548;48.778;9.252;2022-10-16T12:47:23;32.70;65.70
1123;DHT22;548;48.778;9.252;2022-10-16T12:49:51;31.90;67.30
1123;DHT22;548;48.778;9.252;2022-10-16T12:52:34;32.20;67.30
1123;DHT22;548;48.778;9.252;2022-10-16T12:55:01;32.00;67.00
1123;DHT22;548;48.778;9.252;2022-10-16T12:57:39;31.50;69.00
1123;DHT22;548;48.778;9.252;2022-10-16T13:00:18;30.20;71.10
1123;DHT22;548;48.778;9.252;2022-10-16T13:06:04;29.00;74.10
1123;DHT22;548;48.778;9.252;2022-10-16T13:08:44;28.10;77.10
1123;DHT22;548;48.778;9.252;2022-10-16T13:11:22;27.50;79.20
1123;DHT22;548;48.778;9.252;2022-10-16T13:14:09;27.20;81.10
1123;DHT22;548;48.778;9.252;2022-10-16T13:16:50;27.30;81.90
1123;DHT22;548;48.778;9.252;2022-10-16T13:19:24;27.50;82.40
1123;DHT22;548;48.778;9.252;2022-10-16T13:22:00;27.80;82.30
1123;DHT22;548;48.778;9.252;2022-10-16T13:24:42;28.00;81.80
1123;DHT22;548;48.778;9.252;2022-10-16T13:27:21;27.80;82.30
1123;DHT22;548;48.778;9.252;2022-10-16T13:29:54;27.80;83.50
1123;DHT22;548;48.778;9.252;2022-10-16T13:32:26;27.60;82.60
1123;DHT22;548;48.778;9.252;2022-10-16T13:34:53;27.70;83.00
1123;DHT22;548;48.778;9.252;2022-10-16T13:37:22;27.80;83.00
1123;DHT22;548;48.778;9.252;2022-10-16T13:39:49;27.80;84.10
1123;DHT22;548;48.778;9.252;2022-10-16T13:42:22;27.70;83.80
1123;DHT22;548;48.778;9.252;2022-10-16T13:44:51;27.90;84.30
1123;DHT22;548;48.778;9.252;2022-10-16T13:47:19;28.10;84.00
1123;DHT22;548;48.778;9.252;2022-10-16T13:49:59;27.90;82.10
1123;DHT22;548;48.778;9.252;2022-10-16T13:52:27;28.10;82.70
1123;DHT22;548;48.778;9.252;2022-10-16T13:54:53;27.90;82.60
1123;DHT22;548;48.778;9.252;2022-10-16T13:57:22;27.90;83.20
1123;DHT22;548;48.778;9.252;2022-10-16T13:59:50;27.70;82.80
1123;DHT22;548;48.778;9.252;2022-10-16T14:02:21;27.60;84.00
1123;DHT22;548;48.778;9.252;2022-10-16T14:04:50;27.50;85.20
1123;DHT22;548;48.778;9.252;2022-10-16T14:07:22;27.10;85.80
1123;DHT22;548;48.778;9.252;2022-10-16T14:09:50;26.70;88.60
1123;DHT22;548;48.778;9.252;2022-10-16T14:12:18;26.40;89.70
1123;DHT22;548;48.778;9.252;2022-10-16T14:14:46;26.20;90.10
1123;DHT22;548;48.778;9.252;2022-10-16T14:17:14;25.90;91.00
1123;DHT22;548;48.778;9.252;2022-10-16T14:19:45;25.80;91.90
1123;DHT22;548;48.778;9.252;2022-10-16T14:22:30;25.70;92.60
1123;DHT22;548;48.778;9.252;2022-10-16T14:24:58;25.50;93.00
1123;DHT22;548;48.778;9.252;2022-10-16T14:27:33;25.50;94.10
1123;DHT22;548;48.778;9.252;2022-10-16T14:30:13;25.50;95.80
1123;DHT22;548;48.778;9.252;2022-10-16T14:32:41;25.50;96.70
1123;DHT22;548;48.778;9.252;2022-10-16T14:35:22;25.60;96.70
1123;DHT22;548;48.778;9.252;2022-10-16T14:37:53;25.80;96.80
1123;DHT22;548;48.778;9.252;2022-10-16T14:40:21;25.90;96.00
1123;DHT22;548;48.778;9.252;2022-10-16T14:42:49;25.80;96.80
1123;DHT22;548;48.778;9.252;2022-10-16T14:45:19;25.70;97.30
1123;DHT22;548;48.778;9.252;2022-10-16T14:47:49;25.60;96.70
1123;DHT22;548;48.778;9.252;2022-10-16T14:50:17;25.60;96.90
1123;DHT22;548;48.778;9.252;2022-10-16T14:52:43;25.40;96.80
1123;DHT22;548;48.778;9.252;2022-10-16T14:55:11;25.40;98.20
1123;DHT22;548;48.778;9.252;2022-10-16T14:57:40;25.30;98.60
1123;DHT22;548;48.778;9.252;2022-10-16T15:00:15;25.30;99.20
1123;DHT22;548;48.778;9.252;2022-10-16T15:02:42;25.30;99.10
1123;DHT22;548;48.778;9.252;2022-10-16T15:05:15;25.40;99.40
1123;DHT22;548;48.778;9.252;2022-10-16T15:07:42;25.40;98.10
1123;DHT22;548;48.778;9.252;2022-10-16T15:10:09;25.40;97.90
1123;DHT22;548;48.778;9.252;2022-10-16T15:12:37;25.30;97.90
1123;DHT22;548;48.778;9.252;2022-10-16T15:15:35;25.30;97.70
1123;DHT22;548;48.778;9.252;2022-10-16T15:18:04;25.30;98.00
1123;DHT22;548;48.778;9.252;2022-10-16T15:20:32;25.40;97.60
1123;DHT22;548;48.778;9.252;2022-10-16T15:23:00;25.60;97.40
1123;DHT22;548;48.778;9.252;2022-10-16T15:25:38;25.70;97.00
1123;DHT22;548;48.778;9.252;2022-10-16T15:28:09;25.80;97.70
1123;DHT22;548;48.778;9.252;2022-10-16T15:30:37;25.80;96.90
1123;DHT22;548;48.778;9.252;2022-10-16T15:33:08;25.60;96.70
1123;DHT22;548;48.778;9.252;2022-10-16T15:35:36;25.60;96.90
1123;DHT22;548;48.778;9.252;2022-10-16T15:38:03;25.60;97.00
1123;DHT22;548;48.778;9.252;2022-10-16T15:40:29;25.60;97.00
1123;DHT22;548;48.778;9.252;2022-10-16T15:42:56;25.30;97.80
1123;DHT22;548;48.778;9.252;2022-10-16T15:45:24;25.20;98.40
1123;DHT22;548;48.778;9.252;2022-10-16T15:47:51;25.10;98.80
1123;DHT22;548;48.778;9.252;2022-10-16T15:50:18;25.00;99.10
1123;DHT22;548;48.778;9.252;2022-10-16T15:52:44;25.00;99.90
1123;DHT22;548;48.778;9.252;2022-10-16T15:55:13;24.80;99.90
1123;DHT22;548;48.778;9.252;2022-10-16T15:57:40;24.50;99.90
1123;DHT22;548;48.778;9.252;2022-10-16T16:00:11;24.20;99.90
1123;DHT22;548;48.778;9.252;2022-10-16T16:02:40;24.00;99.90
1123;DHT22;548;48.778;9.252;2022-10-16T16:05:08;23.80;99.90
1123;DHT22;548;48.778;9.252;2022-10-16T16:07:37;23.80;99.90
1123;DHT22;548;48.778;9.252;2022-10-16T16:10:06;23.50;99.90
1123;DHT22;548;48.778;9.252;2022-10-16T16:12:33;23.30;99.90
1123;DHT22;548;48.778;9.252;2022-10-16T16:15:00;23.10;99.90
1123;DHT22;548;48.778;9.252;2022-10-16T16:17:27;22.80;99.90
1123;DHT22;548;48.778;9.252;2022-10-16T16:19:55;22.70;99.90
1123;DHT22;548;48.778;9.252;2022-10-16T16:22:21;22.50;99.90
1123;DHT22;548;48.778;9.252;2022-10-16T16:24:48;22.30;99.90
1123;DHT22;548;48.778;9.252;2022-10-16T16:27:15;22.10;99.90
1123;DHT22;548;48.778;9.252;2022-10-16T16:29:42;21.90;99.90
1123;DHT22;548;48.778;9.252;2022-10-16T16:32:09;21.80;99.90
1123;DHT22;548;48.778;9.252;2022-10-16T16:34:35;21.70;99.90
1123;DHT22;548;48.778;9.252;2022-10-16T16:37:03;21.50;99.90
1123;DHT22;548;48.778;9.252;2022-10-16T16:39:30;21.40;99.90
1123;DHT22;548;48.778;9.252;2022-10-16T16:41:57;21.30;99.90
1123;DHT22;548;48.778;9.252;2022-10-16T16:44:24;21.20;99.90
1123;DHT22;548;48.778;9.252;2022-10-16T16:46:51;21.10;99.90
1123;DHT22;548;48.778;9.252;2022-10-16T16:49:20;21.00;99.90
1123;DHT22;548;48.778;9.252;2022-10-16T16:51:46;20.90;99.90
1123;DHT22;548;48.778;9.252;2022-10-16T16:54:14;20.80;99.90
1123;DHT22;548;48.778;9.252;2022-10-16T16:56:41;20.70;99.90
1123;DHT22;548;48.778;9.252;2022-10-16T16:59:13;20.60;99.90
1123;DHT22;548;48.778;9.252;2022-10-16T17:01:41;20.60;99.90
1123;DHT22;548;48.778;9.252;2022-10-16T17:04:08;20.50;99.90
1123;DHT22;548;48.778;9.252;2022-10-16T17:06:36;20.50;99.90
1123;DHT22;548;48.778;9.252;2022-10-16T17:09:05;20.40;99.90
1123;DHT22;548;48.778;9.252;2022-10-16T17:11:33;20.30;99.90
1123;DHT22;548;48.778;9.252;2022-10-16T17:14:00;20.10;99.90
1123;DHT22;548;48.778;9.252;2022-10-16T17:16:29;20.00;99.90
1123;DHT22;548;48.778;9.252;2022-10-16T17:18:59;19.90;99.90
1123;DHT22;548;48.778;9.252;2022-10-16T17:21:26;19.90;99.90
1123;DHT22;548;48.778;9.252;2022-10-16T17:23:55;19.80;99.90
1123;DHT22;548;48.778;9.252;2022-10-16T17:26:22;19.80;99.90
1123;DHT22;548;48.778;9.252;2022-10-16T17:28:52;19.70;99.90
1123;DHT22;548;48.778;9.252;2022-10-16T17:31:21;19.60;99.90
1123;DHT22;548;48.778;9.252;2022-10-16T17:33:48;19.50;99.90
1123;DHT22;548;48.778;9.252;2022-10-16T17:36:16;19.40;99.90
1123;DHT22;548;48.778;9.252;2022-10-16T17:38:43;19.40;99.90
1123;DHT22;548;48.778;9.252;2022-10-16T17:41:11;19.30;99.90
1123;DHT22;548;48.778;9.252;2022-10-16T17:43:38;19.20;99.90
1123;DHT22;548;48.778;9.252;2022-10-16T17:46:07;19.20;99.90
1123;DHT22;548;48.778;9.252;2022-10-16T17:48:36;19.10;99.90
1123;DHT22;548;48.778;9.252;2022-10-16T17:51:05;19.00;99.90
1123;DHT22;548;48.778;9.252;2022-10-16T17:53:32;18.90;99.90
1123;DHT22;548;48.778;9.252;2022-10-16T17:56:03;18.90;99.90
1123;DHT22;548;48.778;9.252;2022-10-16T17:58:30;18.80;99.90
1123;DHT22;548;48.778;9.252;2022-10-16T18:00:56;18.70;99.90
1123;DHT22;548;48.778;9.252;2022-10-16T18:03:25;18.50;99.90
1123;DHT22;548;48.778;9.252;2022-10-16T18:05:53;18.50;99.90
1123;DHT22;548;48.778;9.252;2022-10-16T18:08:20;18.50;99.90
1123;DHT22;548;48.778;9.252;2022-10-16T18:10:48;18.50;99.90
1123;DHT22;548;48.778;9.252;2022-10-16T18:13:15;18.50;99.90
1123;DHT22;548;48.778;9.252;2022-10-16T18:15:42;18.50;99.90
1123;DHT22;548;48.778;9.252;2022-10-16T18:18:09;18.40;99.90
1123;DHT22;548;48.778;9.252;2022-10-16T18:20:37;18.40;99.90
1123;DHT22;548;48.778;9.252;2022-10-16T18:23:04;18.30;99.90
1123;DHT22;548;48.778;9.252;2022-10-16T18:25:31;18.30;99.90
1123;DHT22;548;48.778;9.252;2022-10-16T18:27:58;18.20;99.90